sensor_id;sensor_type;location;lat;lon;timestamp;P1;durP1;ratioP1;P2;durP2;ratioP2
37647;SDS011;23490;53.656;10.076;2022-07-26T00:00:50;8.15;;;2.53;;
37647;SDS011;23490;53.656;10.076;2022-07-26T00:03:15;6.20;;;2.60;;
37647;SDS011;23490;53.656;10.076;2022-07-26T00:05:41;9.13;;;2.78;;
37647;SDS011;23490;53.656;10.076;2022-07-26T00:08:07;11.85;;;3.03;;
37647;SDS011;23490;53.656;10.076;2022-07-26T00:10:43;7.68;;;2.53;;
37647;SDS011;23490;53.656;10.076;2022-07-26T00:13:11;9.18;;;2.83;;
37647;SDS011;23490;53.656;10.076;2022-07-26T00:15:37;8.68;;;2.70;;
37647;SDS011;23490;53.656;10.076;2022-07-26T00:18:03;9.60;;;3.22;;
37647;SDS011;23490;53.656;10.076;2022-07-26T00:20:30;7.47;;;2.78;;
37647;SDS011;23490;53.656;10.076;2022-07-26T00:22:55;10.98;;;3.63;;
37647;SDS011;23490;53.656;10.076;2022-07-26T00:25:20;9.15;;;2.88;;
37647;SDS011;23490;53.656;10.076;2022-07-26T00:27:46;8.93;;;3.20;;
37647;SDS011;23490;53.656;10.076;2022-07-26T00:30:11;8.02;;;3.20;;
37647;SDS011;23490;53.656;10.076;2022-07-26T00:32:37;13.35;;;4.28;;
37647;SDS011;23490;53.656;10.076;2022-07-26T00:35:03;11.32;;;3.40;;
37647;SDS011;23490;53.656;10.076;2022-07-26T00:37:29;13.65;;;4.00;;
37647;SDS011;23490;53.656;10.076;2022-07-26T00:39:54;9.27;;;3.42;;
37647;SDS011;23490;53.656;10.076;2022-07-26T00:42:20;6.63;;;2.95;;
37647;SDS011;23490;53.656;10.076;2022-07-26T00:44:45;9.65;;;2.90;;
37647;SDS011;23490;53.656;10.076;2022-07-26T00:47:11;7.80;;;3.08;;
37647;SDS011;23490;53.656;10.076;2022-07-26T00:49:37;9.82;;;2.97;;
37647;SDS011;23490;53.656;10.076;2022-07-26T00:52:03;8.57;;;3.40;;
37647;SDS011;23490;53.656;10.076;2022-07-26T00:54:30;13.10;;;3.42;;
37647;SDS011;23490;53.656;10.076;2022-07-26T00:56:55;11.43;;;3.08;;
37647;SDS011;23490;53.656;10.076;2022-07-26T00:59:21;7.43;;;2.70;;
37647;SDS011;23490;53.656;10.076;2022-07-26T01:01:47;7.20;;;2.70;;
37647;SDS011;23490;53.656;10.076;2022-07-26T01:04:12;7.65;;;3.63;;
37647;SDS011;23490;53.656;10.076;2022-07-26T01:06:37;8.70;;;2.25;;
37647;SDS011;23490;53.656;10.076;2022-07-26T01:09:03;8.57;;;2.70;;
37647;SDS011;23490;53.656;10.076;2022-07-26T01:11:29;8.50;;;2.60;;
37647;SDS011;23490;53.656;10.076;2022-07-26T01:13:55;6.75;;;2.10;;
37647;SDS011;23490;53.656;10.076;2022-07-26T01:16:22;7.78;;;2.47;;
37647;SDS011;23490;53.656;10.076;2022-07-26T01:18:47;6.60;;;2.50;;
37647;SDS011;23490;53.656;10.076;2022-07-26T01:21:13;6.57;;;2.10;;
37647;SDS011;23490;53.656;10.076;2022-07-26T01:23:38;9.18;;;2.30;;
37647;SDS011;23490;53.656;10.076;2022-07-26T01:26:04;6.07;;;2.38;;
37647;SDS011;23490;53.656;10.076;2022-07-26T01:28:30;9.43;;;2.50;;
37647;SDS011;23490;53.656;10.076;2022-07-26T01:33:25;4.88;;;2.45;;
37647;SDS011;23490;53.656;10.076;2022-07-26T01:35:52;13.32;;;3.13;;
37647;SDS011;23490;53.656;10.076;2022-07-26T01:38:17;7.20;;;2.72;;
37647;SDS011;23490;53.656;10.076;2022-07-26T01:40:43;9.27;;;2.38;;
37647;SDS011;23490;53.656;10.076;2022-07-26T01:43:08;8.90;;;2.60;;
37647;SDS011;23490;53.656;10.076;2022-07-26T01:45:33;10.27;;;2.40;;
37647;SDS011;23490;53.656;10.076;2022-07-26T01:47:59;7.85;;;3.00;;
37647;SDS011;23490;53.656;10.076;2022-07-26T01:50:25;6.85;;;2.75;;
37647;SDS011;23490;53.656;10.076;2022-07-26T01:52:50;8.13;;;3.40;;
37647;SDS011;23490;53.656;10.076;2022-07-26T01:55:16;7.70;;;2.20;;
37647;SDS011;23490;53.656;10.076;2022-07-26T01:57:43;10.10;;;2.80;;
37647;SDS011;23490;53.656;10.076;2022-07-26T02:00:09;10.73;;;3.25;;
37647;SDS011;23490;53.656;10.076;2022-07-26T02:02:35;7.90;;;2.65;;
37647;SDS011;23490;53.656;10.076;2022-07-26T02:05:00;8.80;;;2.50;;
37647;SDS011;23490;53.656;10.076;2022-07-26T02:07:30;6.88;;;2.22;;
37647;SDS011;23490;53.656;10.076;2022-07-26T02:09:57;6.78;;;2.40;;
37647;SDS011;23490;53.656;10.076;2022-07-26T02:12:24;10.55;;;2.60;;
37647;SDS011;23490;53.656;10.076;2022-07-26T02:14:50;7.25;;;2.45;;
37647;SDS011;23490;53.656;10.076;2022-07-26T02:17:15;10.40;;;2.45;;
37647;SDS011;23490;53.656;10.076;2022-07-26T02:19:42;10.52;;;3.08;;
37647;SDS011;23490;53.656;10.076;2022-07-26T02:22:07;7.15;;;2.67;;
37647;SDS011;23490;53.656;10.076;2022-07-26T02:24:33;12.73;;;2.72;;
37647;SDS011;23490;53.656;10.076;2022-07-26T02:26:59;9.68;;;2.83;;
37647;SDS011;23490;53.656;10.076;2022-07-26T02:29:25;10.60;;;3.22;;
37647;SDS011;23490;53.656;10.076;2022-07-26T02:31:51;11.88;;;2.60;;
37647;SDS011;23490;53.656;10.076;2022-07-26T02:34:17;12.48;;;2.70;;
37647;SDS011;23490;53.656;10.076;2022-07-26T02:36:43;11.85;;;3.05;;
37647;SDS011;23490;53.656;10.076;2022-07-26T02:39:09;11.98;;;3.40;;
37647;SDS011;23490;53.656;10.076;2022-07-26T02:41:35;9.98;;;2.78;;
37647;SDS011;23490;53.656;10.076;2022-07-26T02:44:00;9.32;;;2.95;;
37647;SDS011;23490;53.656;10.076;2022-07-26T02:46:26;8.48;;;2.75;;
37647;SDS011;23490;53.656;10.076;2022-07-26T02:48:51;8.13;;;2.30;;
37647;SDS011;23490;53.656;10.076;2022-07-26T02:51:17;11.48;;;3.22;;
37647;SDS011;23490;53.656;10.076;2022-07-26T02:53:42;6.70;;;2.45;;
37647;SDS011;23490;53.656;10.076;2022-07-26T02:56:07;12.30;;;2.90;;
37647;SDS011;23490;53.656;10.076;2022-07-26T02:58:33;10.80;;;3.03;;
37647;SDS011;23490;53.656;10.076;2022-07-26T03:00:59;10.23;;;2.40;;
37647;SDS011;23490;53.656;10.076;2022-07-26T03:03:24;10.85;;;2.90;;
37647;SDS011;23490;53.656;10.076;2022-07-26T03:05:49;9.40;;;2.55;;
37647;SDS011;23490;53.656;10.076;2022-07-26T03:08:15;9.77;;;2.67;;
37647;SDS011;23490;53.656;10.076;2022-07-26T03:10:40;9.57;;;2.42;;
37647;SDS011;23490;53.656;10.076;2022-07-26T03:13:05;10.57;;;2.88;;
37647;SDS011;23490;53.656;10.076;2022-07-26T03:15:31;9.10;;;2.67;;
37647;SDS011;23490;53.656;10.076;2022-07-26T03:17:56;11.70;;;2.80;;
37647;SDS011;23490;53.656;10.076;2022-07-26T03:20:22;12.82;;;2.83;;
37647;SDS011;23490;53.656;10.076;2022-07-26T03:22:48;9.73;;;2.58;;
37647;SDS011;23490;53.656;10.076;2022-07-26T03:25:13;9.98;;;2.63;;
37647;SDS011;23490;53.656;10.076;2022-07-26T03:27:38;9.35;;;3.03;;
37647;SDS011;23490;53.656;10.076;2022-07-26T03:30:04;11.93;;;2.53;;
37647;SDS011;23490;53.656;10.076;2022-07-26T03:32:30;13.05;;;2.67;;
37647;SDS011;23490;53.656;10.076;2022-07-26T03:34:56;14.07;;;3.42;;
37647;SDS011;23490;53.656;10.076;2022-07-26T03:37:21;13.73;;;2.75;;
37647;SDS011;23490;53.656;10.076;2022-07-26T03:39:47;14.20;;;3.60;;
37647;SDS011;23490;53.656;10.076;2022-07-26T03:42:12;7.63;;;2.72;;
37647;SDS011;23490;53.656;10.076;2022-07-26T03:44:38;9.48;;;2.72;;
37647;SDS011;23490;53.656;10.076;2022-07-26T03:47:03;10.27;;;2.88;;
37647;SDS011;23490;53.656;10.076;2022-07-26T03:49:28;15.20;;;3.58;;
37647;SDS011;23490;53.656;10.076;2022-07-26T03:51:54;12.18;;;3.70;;
37647;SDS011;23490;53.656;10.076;2022-07-26T03:54:19;14.02;;;3.38;;
37647;SDS011;23490;53.656;10.076;2022-07-26T03:56:45;9.07;;;3.30;;
37647;SDS011;23490;53.656;10.076;2022-07-26T03:59:10;9.45;;;3.40;;
37647;SDS011;23490;53.656;10.076;2022-07-26T04:01:36;12.75;;;2.50;;
37647;SDS011;23490;53.656;10.076;2022-07-26T04:04:06;10.45;;;2.60;;
37647;SDS011;23490;53.656;10.076;2022-07-26T04:06:33;11.18;;;3.45;;
37647;SDS011;23490;53.656;10.076;2022-07-26T04:08:58;15.02;;;3.53;;
37647;SDS011;23490;53.656;10.076;2022-07-26T04:11:24;12.73;;;3.38;;
37647;SDS011;23490;53.656;10.076;2022-07-26T04:13:49;11.30;;;2.80;;
37647;SDS011;23490;53.656;10.076;2022-07-26T04:16:14;17.42;;;4.10;;
37647;SDS011;23490;53.656;10.076;2022-07-26T04:18:39;12.70;;;3.63;;
37647;SDS011;23490;53.656;10.076;2022-07-26T04:21:06;10.35;;;3.65;;
37647;SDS011;23490;53.656;10.076;2022-07-26T04:23:32;15.77;;;3.83;;
37647;SDS011;23490;53.656;10.076;2022-07-26T04:25:57;12.55;;;3.60;;
37647;SDS011;23490;53.656;10.076;2022-07-26T04:28:23;7.38;;;3.05;;
37647;SDS011;23490;53.656;10.076;2022-07-26T04:30:52;6.72;;;3.25;;
37647;SDS011;23490;53.656;10.076;2022-07-26T04:33:18;8.07;;;3.20;;
37647;SDS011;23490;53.656;10.076;2022-07-26T04:35:44;6.07;;;2.42;;
37647;SDS011;23490;53.656;10.076;2022-07-26T04:38:09;6.40;;;2.78;;
37647;SDS011;23490;53.656;10.076;2022-07-26T04:40:34;7.03;;;2.75;;
37647;SDS011;23490;53.656;10.076;2022-07-26T04:43:00;7.18;;;2.42;;
37647;SDS011;23490;53.656;10.076;2022-07-26T04:45:26;5.70;;;2.50;;
37647;SDS011;23490;53.656;10.076;2022-07-26T04:47:51;7.15;;;2.70;;
37647;SDS011;23490;53.656;10.076;2022-07-26T04:50:17;4.80;;;2.38;;
37647;SDS011;23490;53.656;10.076;2022-07-26T04:52:44;6.60;;;2.88;;
37647;SDS011;23490;53.656;10.076;2022-07-26T04:55:10;5.75;;;3.38;;
37647;SDS011;23490;53.656;10.076;2022-07-26T04:57:36;8.00;;;3.83;;
37647;SDS011;23490;53.656;10.076;2022-07-26T05:00:02;5.55;;;3.25;;
37647;SDS011;23490;53.656;10.076;2022-07-26T05:02:29;5.35;;;3.10;;
37647;SDS011;23490;53.656;10.076;2022-07-26T05:04:54;5.13;;;3.22;;
37647;SDS011;23490;53.656;10.076;2022-07-26T05:07:20;5.50;;;2.88;;
37647;SDS011;23490;53.656;10.076;2022-07-26T05:09:45;6.53;;;3.22;;
37647;SDS011;23490;53.656;10.076;2022-07-26T05:12:10;5.72;;;3.40;;
37647;SDS011;23490;53.656;10.076;2022-07-26T05:14:36;4.85;;;3.28;;
37647;SDS011;23490;53.656;10.076;2022-07-26T05:17:04;5.03;;;3.17;;
37647;SDS011;23490;53.656;10.076;2022-07-26T05:19:30;5.10;;;3.20;;
37647;SDS011;23490;53.656;10.076;2022-07-26T05:21:55;5.32;;;3.30;;
37647;SDS011;23490;53.656;10.076;2022-07-26T05:24:21;4.10;;;2.78;;
37647;SDS011;23490;53.656;10.076;2022-07-26T05:26:46;7.05;;;2.60;;
37647;SDS011;23490;53.656;10.076;2022-07-26T05:29:12;4.53;;;2.90;;
37647;SDS011;23490;53.656;10.076;2022-07-26T05:31:37;6.63;;;2.95;;
37647;SDS011;23490;53.656;10.076;2022-07-26T05:34:02;5.60;;;3.03;;
37647;SDS011;23490;53.656;10.076;2022-07-26T05:36:28;6.00;;;3.28;;
37647;SDS011;23490;53.656;10.076;2022-07-26T05:38:53;7.20;;;3.40;;
37647;SDS011;23490;53.656;10.076;2022-07-26T05:41:19;9.02;;;3.20;;
37647;SDS011;23490;53.656;10.076;2022-07-26T05:43:44;4.55;;;3.15;;
37647;SDS011;23490;53.656;10.076;2022-07-26T05:46:10;6.72;;;3.55;;
37647;SDS011;23490;53.656;10.076;2022-07-26T05:48:36;5.47;;;3.25;;
37647;SDS011;23490;53.656;10.076;2022-07-26T05:51:02;5.45;;;2.95;;
37647;SDS011;23490;53.656;10.076;2022-07-26T05:53:28;7.07;;;3.10;;
37647;SDS011;23490;53.656;10.076;2022-07-26T05:55:53;5.38;;;3.03;;
37647;SDS011;23490;53.656;10.076;2022-07-26T05:58:18;6.72;;;2.65;;
37647;SDS011;23490;53.656;10.076;2022-07-26T06:00:44;6.00;;;3.33;;
37647;SDS011;23490;53.656;10.076;2022-07-26T06:03:09;7.25;;;3.65;;
37647;SDS011;23490;53.656;10.076;2022-07-26T06:05:47;7.43;;;3.22;;
37647;SDS011;23490;53.656;10.076;2022-07-26T06:08:14;6.53;;;3.30;;
37647;SDS011;23490;53.656;10.076;2022-07-26T06:10:39;5.55;;;2.92;;
37647;SDS011;23490;53.656;10.076;2022-07-26T06:13:05;6.30;;;3.05;;
37647;SDS011;23490;53.656;10.076;2022-07-26T06:15:30;6.82;;;2.90;;
37647;SDS011;23490;53.656;10.076;2022-07-26T06:17:56;7.30;;;3.42;;
37647;SDS011;23490;53.656;10.076;2022-07-26T06:20:21;5.55;;;2.72;;
37647;SDS011;23490;53.656;10.076;2022-07-26T06:22:47;5.90;;;2.58;;
37647;SDS011;23490;53.656;10.076;2022-07-26T06:25:12;7.18;;;3.20;;
37647;SDS011;23490;53.656;10.076;2022-07-26T06:27:37;7.30;;;3.22;;
37647;SDS011;23490;53.656;10.076;2022-07-26T06:30:03;8.35;;;2.60;;
37647;SDS011;23490;53.656;10.076;2022-07-26T06:32:29;6.97;;;3.05;;
37647;SDS011;23490;53.656;10.076;2022-07-26T06:34:54;4.80;;;2.72;;
37647;SDS011;23490;53.656;10.076;2022-07-26T06:37:20;10.10;;;3.60;;
37647;SDS011;23490;53.656;10.076;2022-07-26T06:39:45;8.25;;;3.22;;
37647;SDS011;23490;53.656;10.076;2022-07-26T06:42:10;6.30;;;2.88;;
37647;SDS011;23490;53.656;10.076;2022-07-26T06:44:36;6.75;;;2.90;;
37647;SDS011;23490;53.656;10.076;2022-07-26T06:47:01;9.40;;;2.60;;
37647;SDS011;23490;53.656;10.076;2022-07-26T06:49:26;6.35;;;2.72;;
37647;SDS011;23490;53.656;10.076;2022-07-26T06:51:52;5.20;;;2.53;;
37647;SDS011;23490;53.656;10.076;2022-07-26T06:54:17;10.52;;;3.38;;
37647;SDS011;23490;53.656;10.076;2022-07-26T06:56:42;6.68;;;2.28;;
37647;SDS011;23490;53.656;10.076;2022-07-26T06:59:07;12.57;;;2.72;;
37647;SDS011;23490;53.656;10.076;2022-07-26T07:01:33;5.05;;;1.90;;
37647;SDS011;23490;53.656;10.076;2022-07-26T07:03:59;3.83;;;1.88;;
37647;SDS011;23490;53.656;10.076;2022-07-26T07:06:24;5.57;;;1.52;;
37647;SDS011;23490;53.656;10.076;2022-07-26T07:08:49;3.95;;;1.38;;
37647;SDS011;23490;53.656;10.076;2022-07-26T07:11:15;3.35;;;0.98;;
37647;SDS011;23490;53.656;10.076;2022-07-26T07:13:40;3.65;;;1.20;;
37647;SDS011;23490;53.656;10.076;2022-07-26T07:16:05;5.13;;;1.40;;
37647;SDS011;23490;53.656;10.076;2022-07-26T07:18:31;3.25;;;0.88;;
37647;SDS011;23490;53.656;10.076;2022-07-26T07:20:56;2.28;;;0.90;;
37647;SDS011;23490;53.656;10.076;2022-07-26T07:23:22;3.10;;;0.82;;
37647;SDS011;23490;53.656;10.076;2022-07-26T07:25:47;2.85;;;0.70;;
37647;SDS011;23490;53.656;10.076;2022-07-26T07:28:13;3.00;;;0.90;;
37647;SDS011;23490;53.656;10.076;2022-07-26T07:30:39;3.63;;;1.00;;
37647;SDS011;23490;53.656;10.076;2022-07-26T07:33:05;3.85;;;0.75;;
37647;SDS011;23490;53.656;10.076;2022-07-26T07:35:33;2.45;;;0.90;;
37647;SDS011;23490;53.656;10.076;2022-07-26T07:37:59;4.85;;;1.10;;
37647;SDS011;23490;53.656;10.076;2022-07-26T07:40:24;4.20;;;1.20;;
37647;SDS011;23490;53.656;10.076;2022-07-26T07:42:50;5.93;;;1.10;;
37647;SDS011;23490;53.656;10.076;2022-07-26T07:45:15;3.72;;;1.00;;
37647;SDS011;23490;53.656;10.076;2022-07-26T07:47:41;5.15;;;1.10;;
37647;SDS011;23490;53.656;10.076;2022-07-26T07:50:06;3.42;;;0.98;;
37647;SDS011;23490;53.656;10.076;2022-07-26T07:52:32;1.92;;;0.60;;
37647;SDS011;23490;53.656;10.076;2022-07-26T07:54:57;4.95;;;0.85;;
37647;SDS011;23490;53.656;10.076;2022-07-26T07:57:22;4.28;;;0.82;;
37647;SDS011;23490;53.656;10.076;2022-07-26T07:59:48;2.05;;;0.60;;
37647;SDS011;23490;53.656;10.076;2022-07-26T08:02:13;2.03;;;0.82;;
37647;SDS011;23490;53.656;10.076;2022-07-26T08:04:39;5.43;;;1.60;;
37647;SDS011;23490;53.656;10.076;2022-07-26T08:07:05;5.53;;;1.30;;
37647;SDS011;23490;53.656;10.076;2022-07-26T08:09:30;4.30;;;1.05;;
37647;SDS011;23490;53.656;10.076;2022-07-26T08:11:56;2.72;;;1.00;;
37647;SDS011;23490;53.656;10.076;2022-07-26T08:14:21;3.22;;;0.98;;
37647;SDS011;23490;53.656;10.076;2022-07-26T08:16:46;3.47;;;0.80;;
37647;SDS011;23490;53.656;10.076;2022-07-26T08:19:11;4.28;;;0.85;;
37647;SDS011;23490;53.656;10.076;2022-07-26T08:21:37;4.07;;;0.82;;
37647;SDS011;23490;53.656;10.076;2022-07-26T08:24:02;3.00;;;0.82;;
37647;SDS011;23490;53.656;10.076;2022-07-26T08:26:28;2.63;;;1.00;;
37647;SDS011;23490;53.656;10.076;2022-07-26T08:28:53;1.77;;;0.65;;
37647;SDS011;23490;53.656;10.076;2022-07-26T08:31:19;7.70;;;0.95;;
37647;SDS011;23490;53.656;10.076;2022-07-26T08:33:45;4.93;;;0.95;;
37647;SDS011;23490;53.656;10.076;2022-07-26T08:36:11;2.33;;;0.80;;
37647;SDS011;23490;53.656;10.076;2022-07-26T08:38:36;2.70;;;0.45;;
37647;SDS011;23490;53.656;10.076;2022-07-26T08:41:01;1.77;;;0.73;;
37647;SDS011;23490;53.656;10.076;2022-07-26T08:43:27;1.98;;;0.60;;
37647;SDS011;23490;53.656;10.076;2022-07-26T08:45:53;3.83;;;0.80;;
37647;SDS011;23490;53.656;10.076;2022-07-26T08:48:25;2.05;;;0.50;;
37647;SDS011;23490;53.656;10.076;2022-07-26T08:50:50;1.92;;;0.57;;
37647;SDS011;23490;53.656;10.076;2022-07-26T08:53:17;3.97;;;0.43;;
37647;SDS011;23490;53.656;10.076;2022-07-26T08:55:43;2.15;;;0.50;;
37647;SDS011;23490;53.656;10.076;2022-07-26T08:58:09;3.10;;;0.68;;
37647;SDS011;23490;53.656;10.076;2022-07-26T09:00:34;1.67;;;0.52;;
37647;SDS011;23490;53.656;10.076;2022-07-26T09:03:00;4.03;;;0.70;;
37647;SDS011;23490;53.656;10.076;2022-07-26T09:05:29;2.65;;;0.65;;
37647;SDS011;23490;53.656;10.076;2022-07-26T09:07:56;3.80;;;0.60;;
37647;SDS011;23490;53.656;10.076;2022-07-26T09:10:21;1.17;;;0.52;;
37647;SDS011;23490;53.656;10.076;2022-07-26T09:12:51;3.35;;;0.70;;
37647;SDS011;23490;53.656;10.076;2022-07-26T09:15:22;2.05;;;0.50;;
37647;SDS011;23490;53.656;10.076;2022-07-26T09:17:49;2.78;;;0.55;;
37647;SDS011;23490;53.656;10.076;2022-07-26T09:20:22;2.75;;;0.90;;
37647;SDS011;23490;53.656;10.076;2022-07-26T09:25:32;2.95;;;0.75;;
37647;SDS011;23490;53.656;10.076;2022-07-26T09:28:02;5.03;;;0.70;;
37647;SDS011;23490;53.656;10.076;2022-07-26T09:30:50;3.95;;;0.73;;
37647;SDS011;23490;53.656;10.076;2022-07-26T09:33:22;2.88;;;0.50;;
37647;SDS011;23490;53.656;10.076;2022-07-26T09:36:02;4.30;;;0.80;;
37647;SDS011;23490;53.656;10.076;2022-07-26T09:38:46;4.10;;;0.90;;
37647;SDS011;23490;53.656;10.076;2022-07-26T09:41:20;2.58;;;0.70;;
37647;SDS011;23490;53.656;10.076;2022-07-26T09:43:57;3.15;;;0.70;;
37647;SDS011;23490;53.656;10.076;2022-07-26T09:46:24;4.30;;;1.05;;
37647;SDS011;23490;53.656;10.076;2022-07-26T09:48:51;2.75;;;0.93;;
37647;SDS011;23490;53.656;10.076;2022-07-26T09:54:05;3.90;;;0.70;;
37647;SDS011;23490;53.656;10.076;2022-07-26T09:56:47;5.75;;;0.77;;
37647;SDS011;23490;53.656;10.076;2022-07-26T09:59:24;2.17;;;1.10;;
37647;SDS011;23490;53.656;10.076;2022-07-26T10:01:50;5.47;;;0.70;;
37647;SDS011;23490;53.656;10.076;2022-07-26T10:04:17;4.70;;;0.80;;
37647;SDS011;23490;53.656;10.076;2022-07-26T10:06:43;3.40;;;0.90;;
37647;SDS011;23490;53.656;10.076;2022-07-26T10:09:10;3.38;;;0.77;;
37647;SDS011;23490;53.656;10.076;2022-07-26T10:11:44;3.92;;;0.65;;
37647;SDS011;23490;53.656;10.076;2022-07-26T10:19:50;2.70;;;0.57;;
37647;SDS011;23490;53.656;10.076;2022-07-26T10:24:50;2.72;;;0.70;;
37647;SDS011;23490;53.656;10.076;2022-07-26T10:27:38;4.63;;;0.90;;
37647;SDS011;23490;53.656;10.076;2022-07-26T10:32:40;3.92;;;0.63;;
37647;SDS011;23490;53.656;10.076;2022-07-26T10:37:59;5.85;;;0.88;;
37647;SDS011;23490;53.656;10.076;2022-07-26T10:40:28;5.00;;;0.88;;
37647;SDS011;23490;53.656;10.076;2022-07-26T10:43:11;2.28;;;0.52;;
37647;SDS011;23490;53.656;10.076;2022-07-26T10:45:38;3.17;;;0.88;;
37647;SDS011;23490;53.656;10.076;2022-07-26T10:48:16;5.72;;;0.80;;
37647;SDS011;23490;53.656;10.076;2022-07-26T10:50:46;4.73;;;0.83;;
37647;SDS011;23490;53.656;10.076;2022-07-26T10:53:21;3.85;;;0.63;;
37647;SDS011;23490;53.656;10.076;2022-07-26T10:55:55;3.45;;;0.50;;
37647;SDS011;23490;53.656;10.076;2022-07-26T10:58:21;3.85;;;0.93;;
37647;SDS011;23490;53.656;10.076;2022-07-26T11:03:21;3.60;;;0.55;;
37647;SDS011;23490;53.656;10.076;2022-07-26T11:05:47;4.13;;;0.77;;
37647;SDS011;23490;53.656;10.076;2022-07-26T11:08:13;2.30;;;0.65;;
37647;SDS011;23490;53.656;10.076;2022-07-26T11:10:45;2.95;;;0.77;;
37647;SDS011;23490;53.656;10.076;2022-07-26T11:13:12;6.25;;;1.00;;
37647;SDS011;23490;53.656;10.076;2022-07-26T11:15:57;2.85;;;0.75;;
37647;SDS011;23490;53.656;10.076;2022-07-26T11:18:27;4.93;;;0.80;;
37647;SDS011;23490;53.656;10.076;2022-07-26T11:21:09;3.70;;;1.15;;
37647;SDS011;23490;53.656;10.076;2022-07-26T11:23:37;4.93;;;0.90;;
37647;SDS011;23490;53.656;10.076;2022-07-26T11:31:34;5.95;;;1.20;;
37647;SDS011;23490;53.656;10.076;2022-07-26T11:34:02;6.93;;;1.35;;
37647;SDS011;23490;53.656;10.076;2022-07-26T11:36:35;8.38;;;1.20;;
37647;SDS011;23490;53.656;10.076;2022-07-26T11:39:04;6.95;;;1.30;;
37647;SDS011;23490;53.656;10.076;2022-07-26T11:41:31;6.03;;;1.20;;
37647;SDS011;23490;53.656;10.076;2022-07-26T11:43:58;5.90;;;1.10;;
37647;SDS011;23490;53.656;10.076;2022-07-26T11:46:31;6.00;;;1.35;;
37647;SDS011;23490;53.656;10.076;2022-07-26T11:48:58;3.80;;;1.30;;
37647;SDS011;23490;53.656;10.076;2022-07-26T11:51:23;4.65;;;1.27;;
37647;SDS011;23490;53.656;10.076;2022-07-26T11:53:49;6.40;;;1.30;;
37647;SDS011;23490;53.656;10.076;2022-07-26T11:56:16;4.80;;;1.38;;
37647;SDS011;23490;53.656;10.076;2022-07-26T11:58:44;4.57;;;1.40;;
37647;SDS011;23490;53.656;10.076;2022-07-26T12:01:12;6.47;;;1.30;;
37647;SDS011;23490;53.656;10.076;2022-07-26T12:03:40;4.13;;;1.02;;
37647;SDS011;23490;53.656;10.076;2022-07-26T12:06:08;4.95;;;1.23;;
37647;SDS011;23490;53.656;10.076;2022-07-26T12:11:14;4.68;;;1.33;;
37647;SDS011;23490;53.656;10.076;2022-07-26T12:16:27;8.05;;;1.40;;
37647;SDS011;23490;53.656;10.076;2022-07-26T12:18:57;6.30;;;1.60;;
37647;SDS011;23490;53.656;10.076;2022-07-26T12:21:35;6.03;;;1.40;;
37647;SDS011;23490;53.656;10.076;2022-07-26T12:32:04;3.38;;;1.20;;
37647;SDS011;23490;53.656;10.076;2022-07-26T12:34:29;6.72;;;1.30;;
37647;SDS011;23490;53.656;10.076;2022-07-26T12:37:04;2.90;;;1.00;;
37647;SDS011;23490;53.656;10.076;2022-07-26T12:39:33;4.03;;;1.00;;
37647;SDS011;23490;53.656;10.076;2022-07-26T12:41:59;7.47;;;1.65;;
37647;SDS011;23490;53.656;10.076;2022-07-26T12:44:43;5.35;;;1.25;;
37647;SDS011;23490;53.656;10.076;2022-07-26T12:47:09;4.93;;;1.20;;
37647;SDS011;23490;53.656;10.076;2022-07-26T12:49:34;8.02;;;1.25;;
37647;SDS011;23490;53.656;10.076;2022-07-26T12:51:59;7.55;;;1.42;;
37647;SDS011;23490;53.656;10.076;2022-07-26T12:54:25;4.93;;;1.00;;
37647;SDS011;23490;53.656;10.076;2022-07-26T12:56:50;4.20;;;1.35;;
37647;SDS011;23490;53.656;10.076;2022-07-26T12:59:15;3.03;;;0.98;;
37647;SDS011;23490;53.656;10.076;2022-07-26T13:01:41;3.30;;;1.05;;
37647;SDS011;23490;53.656;10.076;2022-07-26T13:04:06;4.82;;;1.08;;
37647;SDS011;23490;53.656;10.076;2022-07-26T13:06:32;6.60;;;1.15;;
37647;SDS011;23490;53.656;10.076;2022-07-26T13:08:57;5.60;;;1.15;;
37647;SDS011;23490;53.656;10.076;2022-07-26T13:11:23;6.18;;;1.20;;
37647;SDS011;23490;53.656;10.076;2022-07-26T13:13:48;3.88;;;1.02;;
37647;SDS011;23490;53.656;10.076;2022-07-26T13:16:14;5.85;;;1.27;;
37647;SDS011;23490;53.656;10.076;2022-07-26T13:18:39;5.95;;;1.42;;
37647;SDS011;23490;53.656;10.076;2022-07-26T13:21:04;4.32;;;1.20;;
37647;SDS011;23490;53.656;10.076;2022-07-26T13:23:30;4.03;;;0.90;;
37647;SDS011;23490;53.656;10.076;2022-07-26T13:25:55;4.82;;;1.30;;
37647;SDS011;23490;53.656;10.076;2022-07-26T13:28:20;5.82;;;1.17;;
37647;SDS011;23490;53.656;10.076;2022-07-26T13:30:46;4.10;;;1.10;;
37647;SDS011;23490;53.656;10.076;2022-07-26T13:33:11;4.78;;;1.20;;
37647;SDS011;23490;53.656;10.076;2022-07-26T13:35:36;4.55;;;1.00;;
37647;SDS011;23490;53.656;10.076;2022-07-26T13:38:03;5.28;;;1.20;;
37647;SDS011;23490;53.656;10.076;2022-07-26T13:40:29;6.95;;;1.50;;
37647;SDS011;23490;53.656;10.076;2022-07-26T13:42:54;5.40;;;1.40;;
37647;SDS011;23490;53.656;10.076;2022-07-26T13:45:19;6.93;;;1.30;;
37647;SDS011;23490;53.656;10.076;2022-07-26T13:47:45;3.15;;;1.00;;
37647;SDS011;23490;53.656;10.076;2022-07-26T13:50:10;4.70;;;1.25;;
37647;SDS011;23490;53.656;10.076;2022-07-26T13:52:36;3.80;;;1.15;;
37647;SDS011;23490;53.656;10.076;2022-07-26T13:55:01;5.47;;;0.95;;
37647;SDS011;23490;53.656;10.076;2022-07-26T13:57:26;3.13;;;0.80;;
37647;SDS011;23490;53.656;10.076;2022-07-26T13:59:52;6.05;;;1.50;;
37647;SDS011;23490;53.656;10.076;2022-07-26T14:02:17;5.95;;;0.80;;
37647;SDS011;23490;53.656;10.076;2022-07-26T14:04:42;3.85;;;1.20;;
37647;SDS011;23490;53.656;10.076;2022-07-26T14:07:08;5.32;;;1.15;;
37647;SDS011;23490;53.656;10.076;2022-07-26T14:09:33;7.28;;;1.27;;
37647;SDS011;23490;53.656;10.076;2022-07-26T14:11:58;5.32;;;1.00;;
37647;SDS011;23490;53.656;10.076;2022-07-26T14:14:24;4.32;;;1.35;;
37647;SDS011;23490;53.656;10.076;2022-07-26T14:16:49;4.72;;;1.20;;
37647;SDS011;23490;53.656;10.076;2022-07-26T14:19:14;3.72;;;1.13;;
37647;SDS011;23490;53.656;10.076;2022-07-26T14:21:40;4.22;;;0.75;;
37647;SDS011;23490;53.656;10.076;2022-07-26T14:24:06;5.20;;;1.17;;
37647;SDS011;23490;53.656;10.076;2022-07-26T14:26:31;4.25;;;1.00;;
37647;SDS011;23490;53.656;10.076;2022-07-26T14:28:57;6.10;;;1.13;;
37647;SDS011;23490;53.656;10.076;2022-07-26T14:31:22;3.72;;;0.82;;
37647;SDS011;23490;53.656;10.076;2022-07-26T14:33:47;5.57;;;1.25;;
37647;SDS011;23490;53.656;10.076;2022-07-26T14:36:13;5.43;;;1.15;;
37647;SDS011;23490;53.656;10.076;2022-07-26T14:38:39;4.78;;;0.93;;
37647;SDS011;23490;53.656;10.076;2022-07-26T14:41:05;9.00;;;1.52;;
37647;SDS011;23490;53.656;10.076;2022-07-26T14:43:30;5.35;;;1.10;;
37647;SDS011;23490;53.656;10.076;2022-07-26T14:45:56;7.47;;;1.33;;
37647;SDS011;23490;53.656;10.076;2022-07-26T14:48:21;6.45;;;0.90;;
37647;SDS011;23490;53.656;10.076;2022-07-26T14:50:47;3.33;;;1.15;;
37647;SDS011;23490;53.656;10.076;2022-07-26T14:53:13;6.22;;;1.33;;
37647;SDS011;23490;53.656;10.076;2022-07-26T14:55:39;4.25;;;1.20;;
37647;SDS011;23490;53.656;10.076;2022-07-26T14:58:04;3.30;;;1.25;;
37647;SDS011;23490;53.656;10.076;2022-07-26T15:00:29;4.70;;;1.10;;
37647;SDS011;23490;53.656;10.076;2022-07-26T15:02:55;5.20;;;1.13;;
37647;SDS011;23490;53.656;10.076;2022-07-26T15:05:20;6.70;;;1.45;;
37647;SDS011;23490;53.656;10.076;2022-07-26T15:07:47;5.05;;;1.15;;
37647;SDS011;23490;53.656;10.076;2022-07-26T15:10:13;5.57;;;1.20;;
37647;SDS011;23490;53.656;10.076;2022-07-26T15:12:39;4.53;;;1.40;;